Terminal Aerodrome Forecast
Issued by NWS Sioux Falls, SD

Home | Current Version | Previous Version | Text Only | Print | Product List | Glossary On
Versions: 1 2 3 4 5 6 7 8 9 10 11 12 13
000
FTUS43 KFSD 300520
TAFFSD
TAF
KFSD 300520Z 3006/3106 VRB03KT P6SM SCT050 BKN250
     FM301100 VRB03KT 4SM BR BKN050 BKN120
     FM301400 08005KT P6SM BKN060 BKN100
     FM302100 06006KT P6SM SCT150=

USA.gov is the U.S. government's official web portal to all federal, state and local government web resources and services.